^^
Meteo Knjazevac Station Historical Data
Daily Summary for June 27, 2021 Units:  Both    English   Metric
Daily Weekly Monthly Yearly Custom
  High: Low: Average:
Temperature: 32.2 °F /  0.1 °C 28.4 °F /  -2 °C 30.9 °F /  -0.6 °C
Dew Point: 31.6 °F /  -0.2 °C 27.1 °F /  -2.7 °C 29.9 °F /  -1.2 °C
Humidity: 99% 93% 96%
Wind Speed: 5mph /  8km/h - 1.2mph /  1.9km/h
Wind Gust: 9mph /  14.5km/h - -
Wind- - SSW
Pressure: 29.92 in /  1013.1 hPa 29.88 in /  1011.7 hPa -
Precipitation: 0.01 in /  0.25 mm    
Historical Graphs
 
 
Tabular Data for June 27, 2021
Time Temperature Dew Point Pressure Wind Wind Speed Wind Gust Humidity Rainfall Rate (Hourly) solar Conditions
00:00 32.2 °F /  0.1 °C 31.2 °F /  -0.4 °C 29.89in /  1012.1hPa NNE 1mph /  1.6km/h 5mph /  8km/h 96% 0.00in /  0mm 0 W/m2
00:10 32 °F /  0 °C 31 °F /  -0.6 °C 29.89in /  1012.1hPa NNE 1mph /  1.6km/h 3mph /  4.8km/h 96% 0.00in /  0mm 0 W/m2
00:20 32 °F /  0 °C 31.5 °F /  -0.3 °C 29.89in /  1012.1hPa NE 2mph /  3.2km/h 3mph /  4.8km/h 98% 0.00in /  0mm 0 W/m2
00:30 32 °F /  0 °C 31.5 °F /  -0.3 °C 29.89in /  1012.1hPa Calm   2mph /  3.2km/h 98% 0.00in /  0mm 0 W/m2
00:40 32 °F /  0 °C 31.5 °F /  -0.3 °C 29.89in /  1012.1hPa Calm   2mph /  3.2km/h 98% 0.00in /  0mm 0 W/m2
00:50 31.9 °F /  -0.1 °C 31.4 °F /  -0.3 °C 29.88in /  1011.7hPa Calm   2mph /  3.2km/h 98% 0.00in /  0mm 0 W/m2
01:00 31.8 °F /  -0.1 °C 31.3 °F /  -0.4 °C 29.89in /  1012.1hPa Calm   1mph /  1.6km/h 98% 0.00in /  0mm 0 W/m2
01:10 31.8 °F /  -0.1 °C 31.6 °F /  -0.2 °C 29.88in /  1011.7hPa Calm   2mph /  3.2km/h 99% 0.00in /  0mm 0 W/m2
01:20 31.7 °F /  -0.2 °C 31.5 °F /  -0.3 °C 29.89in /  1012.1hPa Calm   2mph /  3.2km/h 99% 0.00in /  0mm 0 W/m2
01:30 31.6 °F /  -0.2 °C 31.4 °F /  -0.3 °C 29.88in /  1011.7hPa Calm   2mph /  3.2km/h 99% 0.00in /  0mm 0 W/m2
01:40 31.5 °F /  -0.3 °C 31.2 °F /  -0.4 °C 29.89in /  1012.1hPa West 1mph /  1.6km/h 2mph /  3.2km/h 99% 0.00in /  0mm 0 W/m2
01:50 31.5 °F /  -0.3 °C 31.2 °F /  -0.4 °C 29.89in /  1012.1hPa Calm   1mph /  1.6km/h 99% 0.00in /  0mm 0 W/m2
02:00 31.5 °F /  -0.3 °C 31.2 °F /  -0.4 °C 29.89in /  1012.1hPa Calm   2mph /  3.2km/h 99% 0.00in /  0mm 0 W/m2
02:10 31.5 °F /  -0.3 °C 31.2 °F /  -0.4 °C 29.89in /  1012.1hPa Calm   2mph /  3.2km/h 99% 0.00in /  0mm 0 W/m2
02:20 31.5 °F /  -0.3 °C 31.2 °F /  -0.4 °C 29.89in /  1012.1hPa SE 1mph /  1.6km/h 2mph /  3.2km/h 99% 0.00in /  0mm 0 W/m2
02:30 31.3 °F /  -0.4 °C 31.1 °F /  -0.5 °C 29.89in /  1012.1hPa Calm   3mph /  4.8km/h 99% 0.00in /  0mm 0 W/m2
02:40 31.3 °F /  -0.4 °C 31 °F /  -0.6 °C 29.89in /  1012.1hPa North 1mph /  1.6km/h 2mph /  3.2km/h 99% 0.00in /  0mm 0 W/m2
02:50 31.3 °F /  -0.4 °C 31 °F /  -0.6 °C 29.90in /  1012.4hPa NNE 2mph /  3.2km/h 4mph /  6.4km/h 99% 0.00in /  0mm 0 W/m2
03:00 31.5 °F /  -0.3 °C 31.2 °F /  -0.4 °C 29.90in /  1012.4hPa NNE 2mph /  3.2km/h 5mph /  8km/h 99% 0.00in /  0mm 0 W/m2
03:10 31.5 °F /  -0.3 °C 31 °F /  -0.6 °C 29.90in /  1012.4hPa North 1mph /  1.6km/h 6mph /  9.7km/h 98% 0.00in /  0mm 0 W/m2
03:20 31.5 °F /  -0.3 °C 31 °F /  -0.6 °C 29.90in /  1012.4hPa North 2mph /  3.2km/h 7mph /  11.3km/h 98% 0.00in /  0mm 0 W/m2
03:30 31.3 °F /  -0.4 °C 30.3 °F /  -0.9 °C 29.90in /  1012.4hPa North 1mph /  1.6km/h 6mph /  9.7km/h 96% 0.00in /  0mm 0 W/m2
03:40 31.3 °F /  -0.4 °C 30 °F /  -1.1 °C 29.89in /  1012.1hPa North 3mph /  4.8km/h 8mph /  12.9km/h 95% 0.00in /  0mm 0 W/m2
03:50 31.3 °F /  -0.4 °C 29.8 °F /  -1.2 °C 29.89in /  1012.1hPa NNE 5mph /  8km/h 8mph /  12.9km/h 94% 0.00in /  0mm 0 W/m2
04:00 31.1 °F /  -0.5 °C 29.6 °F /  -1.3 °C 29.89in /  1012.1hPa North 5mph /  8km/h 9mph /  14.5km/h 94% 0.00in /  0mm 0 W/m2
04:10 31.1 °F /  -0.5 °C 29.3 °F /  -1.5 °C 29.90in /  1012.4hPa North 2mph /  3.2km/h 6mph /  9.7km/h 93% 0.00in /  0mm 0 W/m2
04:20 31.1 °F /  -0.5 °C 29.3 °F /  -1.5 °C 29.90in /  1012.4hPa North 1mph /  1.6km/h 5mph /  8km/h 93% 0.00in /  0mm 0 W/m2
04:30 31 °F /  -0.6 °C 29.2 °F /  -1.6 °C 29.90in /  1012.4hPa North 1mph /  1.6km/h 4mph /  6.4km/h 93% 0.00in /  0mm 0 W/m2
04:40 30.8 °F /  -0.7 °C 29.3 °F /  -1.5 °C 29.90in /  1012.4hPa Calm   2mph /  3.2km/h 94% 0.00in /  0mm 0 W/m2
04:50 30.7 °F /  -0.7 °C 29.2 °F /  -1.6 °C 29.91in /  1012.8hPa North 1mph /  1.6km/h 5mph /  8km/h 94% 0.00in /  0mm 0 W/m2
05:00 30.6 °F /  -0.8 °C 29 °F /  -1.7 °C 29.90in /  1012.4hPa NNW 1mph /  1.6km/h 5mph /  8km/h 94% 0.00in /  0mm 0 W/m2
05:10 30.6 °F /  -0.8 °C 29.3 °F /  -1.5 °C 29.91in /  1012.8hPa WNW 1mph /  1.6km/h 5mph /  8km/h 95% 0.00in /  0mm 0 W/m2
05:20 30.3 °F /  -0.9 °C 28.7 °F /  -1.8 °C 29.90in /  1012.4hPa WNW 1mph /  1.6km/h 4mph /  6.4km/h 94% 0.00in /  0mm 0 W/m2
05:30 29.9 °F /  -1.2 °C 28.4 °F /  -2 °C 29.91in /  1012.8hPa NW 1mph /  1.6km/h 4mph /  6.4km/h 94% 0.00in /  0mm 0 W/m2
05:40 29.5 °F /  -1.4 °C 28 °F /  -2.2 °C 29.91in /  1012.8hPa NNW 1mph /  1.6km/h 2mph /  3.2km/h 94% 0.00in /  0mm 0 W/m2
05:50 29.2 °F /  -1.6 °C 27.9 °F /  -2.3 °C 29.91in /  1012.8hPa WNW 2mph /  3.2km/h 5mph /  8km/h 95% 0.00in /  0mm 0 W/m2
06:00 28.9 °F /  -1.7 °C 27.7 °F /  -2.4 °C 29.91in /  1012.8hPa NW 2mph /  3.2km/h 5mph /  8km/h 95% 0.00in /  0mm 0 W/m2
06:10 28.6 °F /  -1.9 °C 27.3 °F /  -2.6 °C 29.92in /  1013.1hPa WNW 2mph /  3.2km/h 5mph /  8km/h 95% 0.00in /  0mm 0 W/m2
06:20 28.6 °F /  -1.9 °C 27.3 °F /  -2.6 °C 29.92in /  1013.1hPa West 1mph /  1.6km/h 6mph /  9.7km/h 95% 0.00in /  0mm 0 W/m2
06:30 28.4 °F /  -2 °C 27.2 °F /  -2.7 °C 29.92in /  1013.1hPa SSW 1mph /  1.6km/h 3mph /  4.8km/h 95% 0.00in /  0mm 0 W/m2
06:40 28.4 °F /  -2 °C 27.2 °F /  -2.7 °C 29.92in /  1013.1hPa ESE 3mph /  4.8km/h 6mph /  9.7km/h 95% 0.01in /  0.25mm 0 W/m2
06:50 28.6 °F /  -1.9 °C 27.1 °F /  -2.7 °C 29.91in /  1012.8hPa Calm   6mph /  9.7km/h 94% 0.00in /  0mm 0 W/m2
Knjazevac, Serbia
Compliments of Weather Underground - 2 mb